KNEL/NEL METAR and TAF weather

Enter ICAO airport designator
Station Type Date Time Source
KNEL METAR 2019/10/21 02:00 UTC NOAA

KNEL 210200Z AUTO 02006KT 10SM OVC020 12/12 A2994 RMK AO2 SLP138 T01170117 $


Station Type Date Time Source
KNEL Decoded METAR 2019/10/21 02:00 UTC NOAA

Lakehurst Naval Air Station, NJ, United States (KNEL) 40-02N 074-19W 24M
Oct 20, 2019 - 10:00 PM EDT / 2019.10.21 0200 UTC
Wind: from the NNE (020 degrees) at 7 MPH (6 KT):0
Visibility: 10 mile(s):0
Sky conditions: overcast
Temperature: 53.1 F (11.7 C)
Dew Point: 53.1 F (11.7 C)
Relative Humidity: 100%
Pressure (altimeter): 29.94 in. Hg (1013 hPa)
ob: KNEL 210200Z AUTO 02006KT 10SM OVC020 12/12 A2994 RMK AO2 SLP138 T01170117
cycle: 2

Station Type Date Time Source
KNEL TAF UTC NOAA

Error!

Example: see airport list